createdAt,value
2023-03-29T00:02:40.320Z,99108.17
2023-03-29T00:05:35.290Z,99112.02
2023-03-29T00:08:25.163Z,99114.15
2023-03-29T00:11:00.860Z,99117.48
2023-03-29T00:13:49.191Z,99116.10
2023-03-29T00:16:24.581Z,99116.63
2023-03-29T00:19:13.164Z,99121.54
2023-03-29T00:21:54.339Z,99120.48
2023-03-29T00:24:35.155Z,99120.59
2023-03-29T00:27:16.689Z,99120.55
2023-03-29T00:29:58.141Z,99122.14
2023-03-29T00:32:47.230Z,99121.21
2023-03-29T00:35:21.835Z,99121.23
2023-03-29T00:38:10.236Z,99124.60
2023-03-29T00:41:05.311Z,99123.33
2023-03-29T00:44:01.134Z,99122.08
2023-03-29T00:46:37.352Z,99123.72
2023-03-29T00:49:25.156Z,99121.76
2023-03-29T00:52:06.343Z,99123.48
2023-03-29T00:54:50.175Z,99121.82
2023-03-29T00:57:40.158Z,99123.41
2023-03-29T01:00:20.998Z,99124.94
2023-03-29T01:03:11.238Z,99123.77
2023-03-29T01:06:00.155Z,99127.30
2023-03-29T01:08:58.146Z,99121.40
2023-03-29T01:11:36.494Z,99120.41
2023-03-29T01:14:37.133Z,99117.70
2023-03-29T01:17:13.154Z,99118.73
2023-03-29T01:20:07.137Z,99117.13
2023-03-29T01:22:48.317Z,99114.66
2023-03-29T01:25:46.187Z,99112.23
2023-03-29T01:28:36.141Z,99117.07
2023-03-29T01:31:29.182Z,99117.06
2023-03-29T01:34:27.137Z,99116.27
2023-03-29T01:37:22.199Z,99111.30
2023-03-29T01:39:58.300Z,99115.48
2023-03-29T01:43:08.126Z,99114.30
2023-03-29T01:46:02.174Z,99114.95
2023-03-29T01:49:01.182Z,99117.25
2023-03-29T01:52:00.186Z,99115.68
2023-03-29T01:54:47.140Z,99112.26
2023-03-29T01:57:30.009Z,99113.47
2023-03-29T02:00:18.136Z,99112.81
2023-03-29T02:03:01.405Z,99113.89
2023-03-29T02:05:45.217Z,99110.01
2023-03-29T02:08:27.317Z,99109.56
2023-03-29T02:11:16.154Z,99103.04
2023-03-29T02:13:57.353Z,99102.55
2023-03-29T02:16:43.132Z,99103.41
2023-03-29T02:19:32.124Z,99103.92
2023-03-29T02:22:10.436Z,99099.33
2023-03-29T02:24:59.360Z,99102.69
2023-03-29T02:27:41.161Z,99102.29
2023-03-29T02:30:24.268Z,99103.77
2023-03-29T02:33:13.116Z,99104.95
2023-03-29T02:36:31.118Z,99110.48
2023-03-29T02:39:06.350Z,99113.03
2023-03-29T02:41:57.126Z,99116.85
2023-03-29T02:44:33.904Z,99117.52
2023-03-29T02:47:39.198Z,99118.13
2023-03-29T02:50:13.687Z,99115.27
2023-03-29T02:53:08.124Z,99114.71
2023-03-29T02:55:42.712Z,99119.33
2023-03-29T02:58:33.122Z,99121.12
2023-03-29T03:01:14.100Z,99119.86
2023-03-29T03:04:02.174Z,99121.29
2023-03-29T03:06:39.411Z,99120.15
2023-03-29T03:09:27.118Z,99118.38
2023-03-29T03:12:01.633Z,99120.72
2023-03-29T03:14:49.469Z,99124.39
2023-03-29T03:17:31.300Z,99123.65
2023-03-29T03:20:17.236Z,99124.52
2023-03-29T03:23:05.192Z,99129.63
2023-03-29T03:25:41.268Z,99126.98
2023-03-29T03:28:31.136Z,99127.48
2023-03-29T03:31:13.140Z,99130.52
2023-03-29T03:34:08.092Z,99127.23
2023-03-29T03:36:56.105Z,99126.71
2023-03-29T03:39:31.674Z,99124.10
2023-03-29T03:42:19.130Z,99121.31
2023-03-29T03:44:55.214Z,99120.63
2023-03-29T03:47:44.130Z,99123.70
2023-03-29T03:50:26.138Z,99121.49
2023-03-29T03:53:21.111Z,99124.02
2023-03-29T03:56:15.119Z,99127.30
2023-03-29T03:58:50.223Z,99130.27
2023-03-29T04:01:38.193Z,99128.52
2023-03-29T04:04:13.335Z,99130.93
2023-03-29T04:07:01.076Z,99131.73
2023-03-29T04:09:46.105Z,99130.27
2023-03-29T04:12:41.085Z,99132.73
2023-03-29T04:15:29.126Z,99133.38
2023-03-29T04:18:14.168Z,99137.98
2023-03-29T04:21:09.113Z,99139.61
2023-03-29T04:23:57.091Z,99137.23
2023-03-29T04:26:32.205Z,99134.35
2023-03-29T04:29:20.080Z,99133.54
2023-03-29T04:31:54.216Z,99123.23
2023-03-29T04:34:42.135Z,99130.23
2023-03-29T04:37:22.257Z,99127.15
2023-03-29T04:40:16.105Z,99125.08
2023-03-29T04:42:51.880Z,99123.42
2023-03-29T04:45:40.128Z,99130.14
2023-03-29T04:48:15.805Z,99131.38
2023-03-29T04:51:04.206Z,99132.95
2023-03-29T04:53:39.227Z,99130.20
2023-03-29T04:56:27.083Z,99130.46
2023-03-29T04:59:09.194Z,99126.52
2023-03-29T05:01:57.155Z,99125.85
2023-03-29T05:04:33.360Z,99126.70
2023-03-29T05:07:22.099Z,99129.72
2023-03-29T05:09:57.254Z,99130.60
2023-03-29T05:12:45.089Z,99128.08
2023-03-29T05:15:27.095Z,99127.15
2023-03-29T05:18:15.080Z,99125.39
2023-03-29T05:20:50.223Z,99126.88
2023-03-29T05:23:38.080Z,99130.83
2023-03-29T05:26:22.099Z,99132.04
2023-03-29T05:29:17.094Z,99133.15
2023-03-29T05:32:06.103Z,99136.35
2023-03-29T05:34:41.296Z,99134.54
2023-03-29T05:37:29.102Z,99134.77
2023-03-29T05:40:14.169Z,99137.87
2023-03-29T05:43:10.112Z,99133.52
2023-03-29T05:46:03.202Z,99135.56
2023-03-29T05:48:45.148Z,99139.49
2023-03-29T05:51:40.157Z,99139.58
2023-03-29T05:54:28.083Z,99138.52
2023-03-29T05:57:09.314Z,99137.13
2023-03-29T05:59:51.085Z,99141.80
2023-03-29T06:02:40.204Z,99137.14
2023-03-29T06:05:29.078Z,99142.58
2023-03-29T06:08:18.060Z,99143.02
2023-03-29T06:10:52.210Z,99143.79
2023-03-29T06:13:41.082Z,99138.36
2023-03-29T06:16:17.239Z,99135.07
2023-03-29T06:19:05.076Z,99139.73
2023-03-29T06:21:47.091Z,99139.70
2023-03-29T06:24:42.097Z,99134.48
2023-03-29T06:27:37.069Z,99138.12
2023-03-29T06:30:26.083Z,99137.40
2023-03-29T06:33:08.084Z,99140.73
2023-03-29T06:36:03.080Z,99144.33
2023-03-29T06:38:53.099Z,99148.97
2023-03-29T06:41:28.312Z,99154.02
2023-03-29T06:44:17.092Z,99157.02
2023-03-29T06:46:52.239Z,99158.22
2023-03-29T06:49:40.054Z,99159.41
2023-03-29T06:52:15.994Z,99156.54
2023-03-29T06:55:04.070Z,99165.50
2023-03-29T06:57:46.247Z,99169.54
2023-03-29T07:00:35.059Z,99163.54
2023-03-29T07:03:30.095Z,99162.45
2023-03-29T07:06:27.054Z,99165.16
2023-03-29T07:09:08.456Z,99163.27
2023-03-29T07:11:57.060Z,99162.73
2023-03-29T07:14:38.048Z,99164.62
2023-03-29T07:17:26.104Z,99167.38
2023-03-29T07:20:00.766Z,99170.77
2023-03-29T07:22:49.064Z,99167.70
2023-03-29T07:25:32.052Z,99170.10
2023-03-29T07:28:20.069Z,99165.35
2023-03-29T07:30:56.155Z,99167.03
2023-03-29T07:33:45.213Z,99165.52
2023-03-29T07:36:20.621Z,99166.52
2023-03-29T07:39:09.058Z,99164.89
2023-03-29T07:41:50.042Z,99165.86
2023-03-29T07:44:31.219Z,99166.63
2023-03-29T07:47:13.052Z,99163.18
2023-03-29T07:49:54.337Z,99165.07
2023-03-29T07:52:37.056Z,99167.34
2023-03-29T07:55:20.311Z,99165.02
2023-03-29T07:58:08.520Z,99164.22
2023-03-29T08:00:44.365Z,99164.11
2023-03-29T08:03:32.149Z,99163.55
2023-03-29T08:06:10.212Z,99161.45
2023-03-29T08:08:58.065Z,99162.62
2023-03-29T08:11:40.041Z,99161.94
2023-03-29T08:14:36.174Z,99159.98
2023-03-29T08:17:24.135Z,99161.57
2023-03-29T08:19:59.405Z,99155.57
2023-03-29T08:22:47.513Z,99154.31
2023-03-29T08:25:23.213Z,99150.25
2023-03-29T08:28:12.066Z,99140.98
2023-03-29T08:30:49.100Z,99142.70
2023-03-29T08:33:37.048Z,99142.26
2023-03-29T08:36:12.216Z,99140.64
2023-03-29T08:39:00.174Z,99145.88
2023-03-29T08:41:55.192Z,99145.91
2023-03-29T08:45:01.459Z,99146.72
2023-03-29T08:48:02.568Z,99143.69
2023-03-29T08:50:49.266Z,99140.13
2023-03-29T08:53:42.011Z,99146.38
2023-03-29T08:56:34.257Z,99147.09
2023-03-29T08:59:40.051Z,99139.02
2023-03-29T09:02:20.686Z,99137.55
2023-03-29T09:05:12.040Z,99135.18
2023-03-29T09:08:01.049Z,99137.66
2023-03-29T09:10:44.240Z,99137.36
2023-03-29T09:13:43.122Z,99141.79
2023-03-29T09:16:46.228Z,99151.06
2023-03-29T09:19:53.047Z,99156.92
2023-03-29T09:22:56.030Z,99149.41
2023-03-29T09:25:56.274Z,99143.46
2023-03-29T09:29:09.683Z,99140.73
2023-03-29T09:31:58.076Z,99136.84
2023-03-29T09:34:48.052Z,99134.52
2023-03-29T09:37:51.032Z,99131.14
2023-03-29T09:40:48.034Z,99129.92
2023-03-29T09:43:25.179Z,99121.69
2023-03-29T09:46:27.044Z,99127.86
2023-03-29T09:49:03.176Z,99128.11
2023-03-29T09:51:52.026Z,99126.63
2023-03-29T09:54:27.174Z,99126.91
2023-03-29T09:57:24.094Z,99124.45
2023-03-29T09:59:59.710Z,99117.83
2023-03-29T10:02:49.054Z,99123.73
2023-03-29T10:05:25.206Z,99123.52
2023-03-29T10:08:37.132Z,99121.36
2023-03-29T10:11:24.147Z,99123.21
2023-03-29T10:14:26.029Z,99115.33
2023-03-29T10:17:04.251Z,99114.05
2023-03-29T10:19:59.884Z,99113.60
2023-03-29T10:22:42.375Z,99104.14
2023-03-29T10:28:21.301Z,99099.33
2023-03-29T10:31:10.089Z,99108.26
2023-03-29T10:33:45.149Z,99111.85
2023-03-29T10:36:34.034Z,99107.83
2023-03-29T10:39:11.254Z,99107.92
2023-03-29T10:42:00.048Z,99106.13
2023-03-29T10:44:38.829Z,99105.96
2023-03-29T10:47:28.035Z,99094.55
2023-03-29T10:50:04.845Z,99092.29
2023-03-29T10:52:53.022Z,99094.89
2023-03-29T10:55:29.158Z,99091.11
2023-03-29T10:58:23.046Z,99086.13
2023-03-29T11:01:05.630Z,99086.11
2023-03-29T11:04:15.233Z,99080.80
2023-03-29T11:07:21.135Z,99080.55
2023-03-29T11:10:25.789Z,99076.92
2023-03-29T11:13:15.034Z,99078.63
2023-03-29T11:16:15.364Z,99078.13
2023-03-29T11:19:10.239Z,99072.89
2023-03-29T11:22:30.180Z,99070.00
2023-03-29T11:25:24.025Z,99066.20
2023-03-29T11:28:18.241Z,99058.48
2023-03-29T11:31:18.136Z,99057.66
2023-03-29T11:34:17.799Z,99053.73
2023-03-29T11:37:26.029Z,99048.27
2023-03-29T11:40:23.200Z,99043.84
2023-03-29T11:43:58.025Z,99037.44
2023-03-29T11:46:46.041Z,99034.60
2023-03-29T11:49:42.012Z,99034.61
2023-03-29T11:52:40.045Z,99034.71
2023-03-29T11:55:53.018Z,99026.24
2023-03-29T11:58:48.021Z,99027.38
2023-03-29T12:01:37.755Z,99023.58
2023-03-29T12:04:38.256Z,99027.50
2023-03-29T12:07:24.141Z,99022.09
2023-03-29T12:10:25.041Z,99017.18
2023-03-29T12:13:14.993Z,99018.09
2023-03-29T12:16:06.027Z,99017.19
2023-03-29T12:18:47.148Z,99018.23
2023-03-29T12:21:36.004Z,99008.50
2023-03-29T12:24:12.180Z,99008.90
2023-03-29T12:27:23.095Z,99011.88
2023-03-29T12:30:34.325Z,99008.81
2023-03-29T12:33:38.003Z,99006.77
2023-03-29T12:36:38.039Z,98998.63
2023-03-29T12:39:27.430Z,99004.20
2023-03-29T12:42:29.026Z,98996.81
2023-03-29T12:45:10.400Z,98992.89
2023-03-29T12:47:59.113Z,98986.88
2023-03-29T12:50:43.364Z,98982.48
2023-03-29T12:53:33.988Z,98985.02
2023-03-29T12:56:12.854Z,98991.19
2023-03-29T12:59:14.014Z,98981.71
2023-03-29T13:02:10.796Z,98982.94
2023-03-29T13:05:04.084Z,98985.73
2023-03-29T13:07:52.887Z,98979.80
2023-03-29T13:10:47.013Z,98974.80
2023-03-29T13:13:43.999Z,98970.19
2023-03-29T13:16:20.247Z,98964.67
2023-03-29T13:19:22.035Z,98972.31
2023-03-29T13:21:59.544Z,98965.08
2023-03-29T13:24:54.042Z,98963.36
2023-03-29T13:27:46.871Z,98965.35
2023-03-29T13:31:03.273Z,98960.09
2023-03-29T13:33:59.872Z,98965.52
2023-03-29T13:37:05.312Z,98948.40
2023-03-29T13:39:50.261Z,98944.85
2023-03-29T13:42:48.086Z,98939.30
2023-03-29T13:45:34.008Z,98940.00
2023-03-29T13:48:40.246Z,98934.57
2023-03-29T13:51:18.192Z,98922.41
2023-03-29T13:54:15.231Z,98927.62
2023-03-29T13:56:59.562Z,98925.46
2023-03-29T13:59:58.050Z,98925.50
2023-03-29T14:02:49.550Z,98927.41
2023-03-29T14:06:01.293Z,98921.30
2023-03-29T14:08:50.039Z,98924.94
2023-03-29T14:11:43.017Z,98921.30
2023-03-29T14:14:48.378Z,98918.91
2023-03-29T14:17:46.010Z,98912.05
2023-03-29T14:20:21.200Z,98907.60
2023-03-29T14:23:16.521Z,98908.11
2023-03-29T14:25:58.026Z,98907.67
2023-03-29T14:28:53.022Z,98903.85
2023-03-29T14:31:40.047Z,98898.05
2023-03-29T14:34:23.208Z,98893.55
2023-03-29T14:37:11.082Z,98892.77
2023-03-29T14:39:45.966Z,98898.41
2023-03-29T14:42:38.084Z,98901.23
2023-03-29T14:45:15.149Z,98897.42
2023-03-29T14:48:05.045Z,98892.17
2023-03-29T14:51:00.021Z,98887.80
2023-03-29T14:53:48.069Z,98880.69
2023-03-29T14:56:25.642Z,98878.58
2023-03-29T14:59:30.072Z,98875.90
2023-03-29T15:02:05.150Z,98875.77
2023-03-29T15:05:02.047Z,98879.30
2023-03-29T15:07:40.075Z,98882.77
2023-03-29T15:10:28.135Z,98874.98
2023-03-29T15:13:03.703Z,98874.27
2023-03-29T15:15:53.085Z,98871.66
2023-03-29T15:19:03.024Z,98867.83
2023-03-29T15:21:52.007Z,98861.42
2023-03-29T15:24:44.017Z,98859.65
2023-03-29T15:27:39.016Z,98861.88
2023-03-29T15:30:38.043Z,98858.90
2023-03-29T15:33:26.300Z,98857.70
2023-03-29T15:36:16.095Z,98862.22
2023-03-29T15:38:57.148Z,98858.48
2023-03-29T15:41:38.006Z,98855.79
2023-03-29T15:44:30.029Z,98852.83
2023-03-29T15:47:10.386Z,98850.20
2023-03-29T15:49:59.998Z,98845.06
2023-03-29T15:52:34.715Z,98845.66
2023-03-29T15:55:23.317Z,98846.33
2023-03-29T15:57:58.505Z,98843.77
2023-03-29T16:00:47.054Z,98848.06
2023-03-29T16:03:29.222Z,98846.20
2023-03-29T16:06:11.332Z,98844.23
2023-03-29T16:08:59.044Z,98843.57
2023-03-29T16:11:42.545Z,98844.42
2023-03-29T16:14:32.774Z,98844.14
2023-03-29T16:17:19.846Z,98841.59
2023-03-29T16:20:02.028Z,98836.40
2023-03-29T16:22:51.019Z,98836.69
2023-03-29T16:25:32.044Z,98835.57
2023-03-29T16:28:15.379Z,98833.39
2023-03-29T16:30:57.015Z,98827.46
2023-03-29T16:33:38.192Z,98822.08
2023-03-29T16:36:19.046Z,98814.02
2023-03-29T16:39:00.208Z,98811.20
2023-03-29T16:41:41.097Z,98816.95
2023-03-29T16:44:26.583Z,98820.20
2023-03-29T16:47:08.365Z,98819.75
2023-03-29T16:49:49.207Z,98822.44
2023-03-29T16:52:32.048Z,98821.20
2023-03-29T16:55:26.007Z,98819.27
2023-03-29T16:58:00.455Z,98816.20
2023-03-29T17:00:48.997Z,98817.08
2023-03-29T17:03:24.163Z,98818.24
2023-03-29T17:06:12.032Z,98817.70
2023-03-29T17:09:07.007Z,98817.52
2023-03-29T17:11:55.003Z,98815.90
2023-03-29T17:14:36.997Z,98815.83
2023-03-29T17:17:32.052Z,98815.35
2023-03-29T17:20:20.161Z,98815.16
2023-03-29T17:22:56.235Z,98811.91
2023-03-29T17:25:44.001Z,98813.46
2023-03-29T17:28:19.145Z,98816.54
2023-03-29T17:31:14.017Z,98818.78
2023-03-29T17:33:52.267Z,98818.62
2023-03-29T17:36:40.005Z,98817.39
2023-03-29T17:39:15.587Z,98818.68
2023-03-29T17:42:04.006Z,98815.15
2023-03-29T17:44:39.130Z,98810.02
2023-03-29T17:47:27.024Z,98808.98
2023-03-29T17:50:02.135Z,98814.78
2023-03-29T17:52:49.992Z,98816.61
2023-03-29T17:55:25.258Z,98815.05
2023-03-29T17:58:13.004Z,98814.80
2023-03-29T18:00:55.198Z,98813.57
2023-03-29T18:03:50.225Z,98812.35
2023-03-29T18:06:45.005Z,98813.71
2023-03-29T18:09:40.621Z,98822.98
2023-03-29T18:12:23.013Z,98820.15
2023-03-29T18:15:04.372Z,98823.08
2023-03-29T18:17:50.007Z,98824.20
2023-03-29T18:20:47.098Z,98826.34
2023-03-29T18:23:35.985Z,98828.44
2023-03-29T18:26:11.163Z,98831.20
2023-03-29T18:28:59.259Z,98828.45
2023-03-29T18:31:35.391Z,98829.73
2023-03-29T18:34:23.209Z,98826.44
2023-03-29T18:36:58.297Z,98826.90
2023-03-29T18:39:48.055Z,98827.02
2023-03-29T18:42:30.015Z,98832.73
2023-03-29T18:45:11.992Z,98838.51
2023-03-29T18:48:00.189Z,98842.91
2023-03-29T18:50:58.120Z,98844.00
2023-03-29T18:53:48.066Z,98837.77
2023-03-29T18:56:23.206Z,98834.85
2023-03-29T18:59:13.003Z,98831.67
2023-03-29T19:01:48.509Z,98829.83
2023-03-29T19:04:44.232Z,98825.40
2023-03-29T19:07:39.051Z,98822.41
2023-03-29T19:10:33.983Z,98814.50
2023-03-29T19:13:22.019Z,98807.31
2023-03-29T19:15:59.260Z,98803.09
2023-03-29T19:18:48.000Z,98804.98
2023-03-29T19:21:30.005Z,98802.94
2023-03-29T19:24:25.006Z,98805.61
2023-03-29T19:27:13.558Z,98809.77
2023-03-29T19:29:57.655Z,98814.45
2023-03-29T19:32:46.052Z,98813.88
2023-03-29T19:35:21.525Z,98814.23
2023-03-29T19:38:08.998Z,98814.78
2023-03-29T19:40:45.224Z,98811.09
2023-03-29T19:43:33.978Z,98804.18
2023-03-29T19:46:16.520Z,98798.97
2023-03-29T19:49:05.993Z,98798.75
2023-03-29T19:51:41.280Z,98791.90
2023-03-29T19:54:29.192Z,98787.80
2023-03-29T19:57:14.039Z,98786.70
2023-03-29T20:00:08.986Z,98789.91
2023-03-29T20:02:57.064Z,98795.63
2023-03-29T20:05:32.174Z,98795.95
2023-03-29T20:08:19.962Z,98791.48
2023-03-29T20:10:54.115Z,98791.16
2023-03-29T20:13:42.061Z,98793.52
2023-03-29T20:16:24.586Z,98796.54
2023-03-29T20:19:14.221Z,98798.94
2023-03-29T20:21:50.884Z,98806.11
2023-03-29T20:24:38.977Z,98808.39
2023-03-29T20:27:15.983Z,98808.94
2023-03-29T20:30:04.048Z,98810.49
2023-03-29T20:32:39.150Z,98808.29
2023-03-29T20:35:26.990Z,98802.71
2023-03-29T20:38:09.138Z,98796.58
2023-03-29T20:40:50.988Z,98791.23
2023-03-29T20:43:37.763Z,98784.96
2023-03-29T20:46:26.185Z,98780.56
2023-03-29T20:49:09.100Z,98777.63
2023-03-29T20:51:51.030Z,98777.16
2023-03-29T20:54:40.069Z,98779.18
2023-03-29T20:57:17.549Z,98775.15
2023-03-29T21:00:06.018Z,98770.42
2023-03-29T21:02:40.749Z,98761.61
2023-03-29T21:05:28.968Z,98762.86
2023-03-29T21:08:04.478Z,98759.87
2023-03-29T21:10:52.038Z,98759.57
2023-03-29T21:13:35.758Z,98763.97
2023-03-29T21:16:25.944Z,98767.10
2023-03-29T21:19:00.743Z,98765.76
2023-03-29T21:21:50.061Z,98767.84
2023-03-29T21:24:24.481Z,98775.07
2023-03-29T21:27:12.981Z,98771.16
2023-03-29T21:29:48.273Z,98768.64
2023-03-29T21:32:35.979Z,98763.69
2023-03-29T21:35:11.322Z,98764.35
2023-03-29T21:37:58.960Z,98764.86
2023-03-29T21:40:36.234Z,98769.11
2023-03-29T21:43:23.966Z,98768.97
2023-03-29T21:46:04.971Z,98768.69
2023-03-29T21:48:46.101Z,98768.27
2023-03-29T21:51:26.982Z,98764.08
2023-03-29T21:54:08.195Z,98755.80
2023-03-29T21:56:52.103Z,98751.61
2023-03-29T21:59:33.119Z,98755.16
2023-03-29T22:02:14.051Z,98753.86
2023-03-29T22:04:55.127Z,98753.95
2023-03-29T22:07:35.953Z,98752.09
2023-03-29T22:10:22.903Z,98755.69
2023-03-29T22:13:03.949Z,98754.06
2023-03-29T22:15:45.296Z,98754.31
2023-03-29T22:18:28.078Z,98755.30
2023-03-29T22:21:09.120Z,98755.67
2023-03-29T22:23:51.971Z,98756.11
2023-03-29T22:26:42.956Z,98752.14
2023-03-29T22:29:17.439Z,98752.66
2023-03-29T22:32:05.154Z,98751.35
2023-03-29T22:34:40.611Z,98746.48
2023-03-29T22:37:28.958Z,98747.84
2023-03-29T22:40:04.546Z,98753.35
2023-03-29T22:42:52.952Z,98751.23
2023-03-29T22:45:27.611Z,98754.83
2023-03-29T22:48:15.953Z,98750.13
2023-03-29T22:50:50.685Z,98745.77
2023-03-29T22:53:38.995Z,98743.44
2023-03-29T22:56:14.517Z,98741.02
2023-03-29T22:59:01.936Z,98736.89
2023-03-29T23:01:57.149Z,98732.21
2023-03-29T23:04:45.003Z,98730.20
2023-03-29T23:07:27.003Z,98731.09
2023-03-29T23:10:22.942Z,98725.89
2023-03-29T23:13:16.961Z,98721.30
2023-03-29T23:15:54.705Z,98720.05
2023-03-29T23:18:43.926Z,98717.65
2023-03-29T23:21:18.077Z,98715.83
2023-03-29T23:24:06.025Z,98708.83
2023-03-29T23:26:48.019Z,98708.80
2023-03-29T23:29:44.973Z,98702.91
2023-03-29T23:32:33.000Z,98702.73
2023-03-29T23:35:14.953Z,98696.17
2023-03-29T23:38:02.930Z,98693.36
2023-03-29T23:40:38.140Z,98687.98
2023-03-29T23:43:26.011Z,98688.59
2023-03-29T23:46:08.111Z,98689.15
2023-03-29T23:48:56.946Z,98689.96
2023-03-29T23:51:39.328Z,98690.71
2023-03-29T23:54:21.939Z,98690.92
2023-03-29T23:57:03.106Z,98686.29
2023-03-29T23:59:43.949Z,98685.77
